Time;durP1;ratioP1;P1;durP2;ratioP2;P2;SDS_P1;SDS_P2;PMS_P1;PMS_P2;Temp;Humidity;BMP_temperature;BMP_pressure;BME280_temperature;BME280_humidity;BME280_pressure;Samples;Min_cycle;Max_cycle;Signal;HPM_P1;HPM_P2
2022/05/21 00:00:46;;;;;;;1.70;1.00;;;27.50;50.30;;;;;;5029207;28;20124;-62
2022/05/21 00:03:12;;;;;;;1.35;1.10;;;27.50;50.30;;;;;;5029899;28;20033;-60
2022/05/21 00:05:39;;;;;;;1.15;1.00;;;27.50;50.20;;;;;;5032349;28;20025;-62
2022/05/21 00:08:08;;;;;;;1.92;1.10;;;27.50;50.20;;;;;;5029703;28;20044;-60
2022/05/21 00:10:35;;;;;;;2.08;1.20;;;27.50;50.20;;;;;;5031114;28;20123;-62
2022/05/21 00:13:01;;;;;;;1.52;1.05;;;27.50;50.20;;;;;;5026989;28;20547;-62
2022/05/21 00:15:30;;;;;;;1.52;1.00;;;27.50;50.20;;;;;;5028112;28;20221;-62
2022/05/21 00:17:56;;;;;;;1.48;0.98;;;27.50;50.20;;;;;;5028885;28;21820;-62
2022/05/21 00:23:19;;;;;;;1.65;1.00;;;27.50;50.20;;;;;;5033424;28;21111;-64
2022/05/21 00:25:47;;;;;;;1.60;1.00;;;27.50;50.20;;;;;;5031674;28;20028;-63
2022/05/21 00:28:14;;;;;;;1.63;1.10;;;27.50;50.20;;;;;;5027128;28;20108;-61
2022/05/21 00:30:40;;;;;;;1.83;1.20;;;27.50;50.30;;;;;;5013272;28;20442;-63
2022/05/21 00:33:07;;;;;;;1.20;0.98;;;27.50;50.20;;;;;;5027781;28;20040;-60
2022/05/21 00:35:33;;;;;;;1.55;1.15;;;27.40;50.10;;;;;;5031191;28;20036;-62
2022/05/21 00:37:59;;;;;;;1.42;1.00;;;27.40;50.10;;;;;;5028213;28;20115;-62
2022/05/21 00:40:25;;;;;;;1.67;1.02;;;27.40;50.10;;;;;;5030329;28;20056;-62
2022/05/21 00:42:52;;;;;;;2.28;1.38;;;27.40;50.20;;;;;;5023296;28;20027;-61
2022/05/21 00:45:18;;;;;;;1.80;1.20;;;27.40;50.20;;;;;;5029588;28;20029;-61
2022/05/21 00:47:44;;;;;;;1.60;1.00;;;27.40;50.10;;;;;;5029912;28;20029;-60
2022/05/21 00:50:12;;;;;;;1.02;0.90;;;27.40;50.10;;;;;;5032566;28;20035;-62
2022/05/21 00:52:39;;;;;;;1.33;1.10;;;27.40;50.20;;;;;;5031382;28;20033;-64
2022/05/21 00:55:20;;;;;;;1.85;1.10;;;27.40;50.20;;;;;;5032349;28;20143;-61
2022/05/21 01:00:47;;;;;;;1.90;1.20;;;27.30;50.10;;;;;;5030151;28;20433;-60
2022/05/21 01:03:15;;;;;;;1.70;1.10;;;27.40;50.20;;;;;;5024297;28;20041;-61
2022/05/21 01:05:45;;;;;;;1.33;1.13;;;27.40;50.10;;;;;;5030589;28;20102;-59
2022/05/21 01:08:10;;;;;;;1.42;1.08;;;27.30;50.10;;;;;;5029733;28;20029;-63
2022/05/21 01:10:40;;;;;;;2.22;1.10;;;27.30;50.10;;;;;;5027853;28;20033;-63
2022/05/21 01:13:13;;;;;;;1.45;0.90;;;27.30;50.10;;;;;;5024407;28;20462;-62
2022/05/21 01:15:42;;;;;;;1.45;1.10;;;27.30;50.10;;;;;;5030780;28;20029;-63
2022/05/21 01:18:09;;;;;;;1.52;1.10;;;27.30;50.10;;;;;;5024653;28;20060;-62
2022/05/21 01:20:41;;;;;;;1.55;1.05;;;27.30;50.10;;;;;;5026978;28;20554;-61
2022/05/21 01:23:07;;;;;;;1.33;0.90;;;27.30;50.10;;;;;;5029737;28;20131;-61
2022/05/21 01:25:35;;;;;;;1.90;1.20;;;27.30;50.10;;;;;;5029784;28;20112;-60
2022/05/21 01:28:03;;;;;;;1.50;1.10;;;27.30;50.10;;;;;;5024223;28;20021;-64
2022/05/21 01:30:39;;;;;;;2.07;1.10;;;27.30;50.10;;;;;;5028223;28;20033;-60
2022/05/21 01:33:06;;;;;;;1.40;1.13;;;27.30;50.10;;;;;;5027170;28;20626;-64
2022/05/21 01:35:33;;;;;;;1.55;1.05;;;27.30;50.10;;;;;;5031193;28;20025;-60
2022/05/21 01:37:59;;;;;;;1.83;1.27;;;27.30;50.10;;;;;;5027361;28;20484;-61
2022/05/21 01:40:25;;;;;;;2.38;0.90;;;27.30;50.10;;;;;;5028039;28;20055;-63
2022/05/21 01:45:35;;;;;;;1.20;1.00;;;27.30;50.10;;;;;;5028142;28;20412;-60
2022/05/21 01:48:02;;;;;;;1.33;0.95;;;27.30;50.10;;;;;;5026737;28;20038;-61
2022/05/21 01:50:29;;;;;;;1.77;1.05;;;27.30;50.10;;;;;;5029292;28;20024;-62
2022/05/21 01:52:54;;;;;;;2.22;1.27;;;27.20;50.10;;;;;;5029188;28;20029;-63
2022/05/21 01:55:20;;;;;;;1.50;1.15;;;27.20;50.10;;;;;;5030293;28;20044;-60
2022/05/21 01:57:46;;;;;;;1.60;1.08;;;27.20;50.10;;;;;;5022753;28;20044;-63
2022/05/21 02:00:13;;;;;;;1.85;1.00;;;27.20;50.10;;;;;;5027858;28;20648;-64
2022/05/21 02:02:38;;;;;;;1.40;1.00;;;27.20;50.10;;;;;;5029458;28;20033;-61
2022/05/21 02:05:05;;;;;;;1.42;1.00;;;27.20;50.20;;;;;;5029466;28;20041;-63
2022/05/21 02:07:30;;;;;;;1.60;1.10;;;27.20;50.10;;;;;;5027258;28;20056;-62
2022/05/21 02:09:56;;;;;;;1.70;1.00;;;27.20;50.10;;;;;;5027796;28;20039;-61
2022/05/21 02:12:22;;;;;;;1.95;1.10;;;27.20;50.20;;;;;;5023505;28;20139;-63
2022/05/21 02:14:48;;;;;;;1.58;1.13;;;27.20;50.20;;;;;;5028158;28;20037;-64
2022/05/21 02:17:15;;;;;;;1.10;0.90;;;27.10;50.10;;;;;;5025947;28;20139;-64
2022/05/21 02:19:40;;;;;;;1.25;1.02;;;27.10;50.20;;;;;;5027218;28;20033;-60
2022/05/21 02:22:06;;;;;;;1.42;1.05;;;27.10;50.10;;;;;;5027455;28;20083;-63
2022/05/21 02:24:32;;;;;;;1.35;0.90;;;27.10;50.10;;;;;;5028904;28;20033;-63
2022/05/21 02:26:57;;;;;;;1.48;1.02;;;27.10;50.20;;;;;;5024194;28;20539;-62
2022/05/21 02:29:23;;;;;;;1.48;1.13;;;27.10;50.20;;;;;;5026265;28;20107;-62
2022/05/21 02:31:51;;;;;;;1.73;1.20;;;27.10;50.20;;;;;;5027357;28;20040;-64
2022/05/21 02:34:17;;;;;;;1.48;1.00;;;27.10;50.20;;;;;;5028876;28;20033;-60
2022/05/21 02:39:28;;;;;;;1.40;1.00;;;27.10;50.20;;;;;;5029301;28;20040;-63
2022/05/21 02:41:58;;;;;;;1.63;1.08;;;27.10;50.20;;;;;;5023398;28;20025;-62
2022/05/21 02:44:24;;;;;;;1.60;1.20;;;27.10;50.20;;;;;;5030273;28;20139;-63
2022/05/21 02:46:51;;;;;;;1.50;1.10;;;27.00;50.20;;;;;;5031369;28;20029;-64
2022/05/21 02:49:16;;;;;;;1.33;1.00;;;27.00;50.20;;;;;;5030505;28;20060;-61
2022/05/21 02:51:42;;;;;;;1.55;1.17;;;27.00;50.20;;;;;;5032235;28;20049;-63
2022/05/21 02:54:09;;;;;;;1.65;1.10;;;27.00;50.20;;;;;;5029456;28;20352;-64
2022/05/21 02:56:36;;;;;;;1.52;1.00;;;27.00;50.20;;;;;;5029878;28;20484;-64
2022/05/21 02:59:06;;;;;;;1.38;1.10;;;27.00;50.30;;;;;;5028927;28;20433;-63
2022/05/21 03:01:33;;;;;;;1.17;0.90;;;27.00;50.20;;;;;;5022751;28;20455;-64
2022/05/21 03:04:00;;;;;;;1.77;1.10;;;27.00;50.30;;;;;;5032760;28;20508;-60
2022/05/21 03:06:26;;;;;;;1.77;1.15;;;27.00;50.20;;;;;;5031773;28;20025;-63
2022/05/21 03:11:35;;;;;;;1.48;0.95;;;27.00;50.20;;;;;;5032811;28;20046;-63
2022/05/21 03:14:02;;;;;;;1.40;1.05;;;27.00;50.20;;;;;;5031367;28;20172;-61
2022/05/21 03:16:28;;;;;;;1.50;1.00;;;27.00;50.20;;;;;;5031182;28;20392;-62
2022/05/21 03:18:53;;;;;;;1.38;0.80;;;26.90;50.20;;;;;;5030035;28;20025;-62
2022/05/21 03:21:19;;;;;;;1.67;1.10;;;26.90;50.20;;;;;;5027280;28;20037;-63
2022/05/21 03:23:44;;;;;;;1.80;1.27;;;26.90;50.20;;;;;;5031981;28;20053;-60
2022/05/21 03:26:10;;;;;;;1.45;1.00;;;26.90;50.20;;;;;;5029696;28;20864;-64
2022/05/21 03:28:36;;;;;;;1.25;1.10;;;26.90;50.20;;;;;;5026147;28;20044;-60
2022/05/21 03:31:02;;;;;;;1.25;1.05;;;26.90;50.20;;;;;;5029787;28;20124;-62
2022/05/21 03:33:28;;;;;;;1.90;1.00;;;26.90;50.20;;;;;;5031558;28;20065;-65
2022/05/21 03:35:54;;;;;;;1.30;1.00;;;26.90;50.20;;;;;;5031077;28;20040;-61
2022/05/21 03:38:19;;;;;;;1.58;1.10;;;26.90;50.20;;;;;;5031011;28;20028;-61
2022/05/21 03:40:46;;;;;;;1.67;1.10;;;26.90;50.20;;;;;;5033043;28;20051;-64
2022/05/21 03:43:12;;;;;;;1.63;1.20;;;26.80;50.20;;;;;;5027298;28;20091;-61
2022/05/21 03:45:37;;;;;;;1.13;1.00;;;26.80;50.20;;;;;;5031399;28;20024;-63
2022/05/21 03:48:05;;;;;;;1.70;1.10;;;26.80;50.10;;;;;;5030989;28;20057;-64
2022/05/21 03:50:32;;;;;;;1.38;0.90;;;26.80;50.20;;;;;;5031654;28;20052;-64
2022/05/21 03:52:59;;;;;;;1.40;0.90;;;26.80;50.10;;;;;;5029066;28;21385;-60
2022/05/21 03:55:25;;;;;;;1.17;1.00;;;26.80;50.20;;;;;;5029284;28;20563;-60
2022/05/21 03:57:50;;;;;;;1.45;0.90;;;26.80;50.10;;;;;;5028291;28;20139;-61
2022/05/21 04:00:18;;;;;;;1.98;1.20;;;26.80;50.10;;;;;;5027641;28;20021;-63
2022/05/21 04:02:44;;;;;;;1.77;1.10;;;26.80;50.10;;;;;;5026851;28;20037;-63
2022/05/21 04:05:11;;;;;;;1.80;1.10;;;26.80;50.10;;;;;;5032842;28;20040;-63
2022/05/21 04:07:39;;;;;;;1.38;1.00;;;26.80;50.20;;;;;;5030511;28;20116;-64
2022/05/21 04:10:06;;;;;;;1.00;0.90;;;26.80;50.10;;;;;;5027428;28;20029;-61
2022/05/21 04:12:32;;;;;;;1.05;0.90;;;26.80;50.20;;;;;;5029136;28;20033;-64
2022/05/21 04:14:57;;;;;;;1.40;1.02;;;26.80;50.20;;;;;;5030315;28;20481;-65
2022/05/21 04:17:23;;;;;;;1.40;0.90;;;26.80;50.10;;;;;;5031933;28;20040;-61
2022/05/21 04:19:49;;;;;;;1.10;0.90;;;26.80;50.20;;;;;;5030539;28;20500;-61
2022/05/21 04:22:14;;;;;;;1.38;1.00;;;26.80;50.20;;;;;;5028327;28;20033;-63
2022/05/21 04:24:40;;;;;;;2.35;0.90;;;26.80;50.20;;;;;;5026252;28;20026;-63
2022/05/21 04:27:09;;;;;;;1.38;1.10;;;26.70;50.10;;;;;;5024403;28;20021;-64
2022/05/21 04:29:36;;;;;;;1.27;1.00;;;26.70;50.10;;;;;;5026064;28;20025;-63
2022/05/21 04:32:01;;;;;;;1.45;1.08;;;26.70;50.10;;;;;;5027588;28;20057;-64
2022/05/21 04:34:27;;;;;;;1.73;1.10;;;26.70;50.10;;;;;;5029774;28;20033;-63
2022/05/21 04:36:53;;;;;;;1.42;1.10;;;26.70;50.10;;;;;;5028634;28;20249;-61
2022/05/21 04:39:18;;;;;;;1.45;1.00;;;26.70;50.10;;;;;;5028554;28;20502;-64
2022/05/21 04:41:44;;;;;;;1.15;0.90;;;26.70;50.10;;;;;;5028016;28;20203;-60
2022/05/21 04:44:09;;;;;;;1.30;1.00;;;26.70;50.10;;;;;;5027151;28;20036;-64
2022/05/21 04:46:35;;;;;;;1.55;0.90;;;26.70;50.10;;;;;;5030669;28;20114;-64
2022/05/21 04:49:02;;;;;;;1.40;1.00;;;26.70;50.10;;;;;;5020278;28;20124;-61
2022/05/21 04:51:28;;;;;;;1.70;1.20;;;26.70;50.60;;;;;;5032109;28;20786;-64
2022/05/21 04:53:53;;;;;;;2.13;1.20;;;26.60;50.10;;;;;;5027414;28;20028;-62
2022/05/21 04:56:19;;;;;;;2.05;1.20;;;26.60;50.10;;;;;;5029242;28;20041;-63
2022/05/21 04:58:45;;;;;;;1.40;1.10;;;26.60;50.10;;;;;;5028506;28;20125;-63
2022/05/21 05:01:11;;;;;;;1.95;1.10;;;26.70;50.10;;;;;;5027711;28;20045;-63
2022/05/21 05:03:36;;;;;;;1.20;1.00;;;26.70;50.20;;;;;;5028488;28;20104;-60
2022/05/21 05:06:03;;;;;;;1.92;1.00;;;26.60;50.10;;;;;;5030994;28;20037;-63
2022/05/21 05:08:28;;;;;;;2.38;1.00;;;26.60;50.10;;;;;;5028284;28;20032;-61
2022/05/21 05:10:55;;;;;;;1.40;0.90;;;26.60;50.10;;;;;;5027642;28;20033;-63
2022/05/21 05:13:20;;;;;;;1.10;0.90;;;26.60;50.20;;;;;;5027106;28;20377;-60
2022/05/21 05:15:49;;;;;;;1.38;1.00;;;26.60;50.10;;;;;;5030088;28;20048;-64
2022/05/21 05:18:19;;;;;;;1.25;1.08;;;26.60;50.10;;;;;;5030078;28;20100;-64
2022/05/21 05:20:46;;;;;;;1.40;1.00;;;26.60;50.10;;;;;;5028051;28;20029;-61
2022/05/21 05:23:12;;;;;;;1.35;1.10;;;26.60;50.10;;;;;;5028866;28;20041;-63
2022/05/21 05:25:38;;;;;;;1.02;0.80;;;26.60;50.10;;;;;;5028580;28;20036;-62
2022/05/21 05:28:11;;;;;;;1.25;0.90;;;26.60;50.10;;;;;;5025283;28;20032;-61
2022/05/21 05:30:37;;;;;;;1.65;1.00;;;26.60;50.10;;;;;;5028729;28;20037;-60
2022/05/21 05:33:02;;;;;;;1.05;0.90;;;26.60;50.10;;;;;;5029250;28;20044;-63
2022/05/21 05:35:28;;;;;;;1.00;0.90;;;26.60;50.10;;;;;;5032637;28;20088;-63
2022/05/21 05:37:54;;;;;;;1.73;1.00;;;26.50;50.00;;;;;;5028229;28;20341;-64
2022/05/21 05:40:20;;;;;;;0.93;0.80;;;26.50;50.00;;;;;;5028754;28;20029;-62
2022/05/21 05:42:48;;;;;;;1.05;0.88;;;26.50;50.00;;;;;;5026969;28;20497;-61
2022/05/21 05:45:15;;;;;;;1.00;0.90;;;26.50;50.00;;;;;;5027649;28;20812;-64
2022/05/21 05:47:41;;;;;;;1.00;0.90;;;26.50;50.00;;;;;;5029177;28;20477;-61
2022/05/21 05:50:07;;;;;;;1.35;1.00;;;26.50;49.90;;;;;;5028834;28;20044;-61
2022/05/21 05:52:33;;;;;;;1.02;0.98;;;26.50;50.00;;;;;;5027692;28;20116;-61
2022/05/21 05:54:58;;;;;;;1.27;1.00;;;26.50;49.90;;;;;;5030604;28;20037;-60
2022/05/21 05:57:24;;;;;;;1.10;1.00;;;26.50;49.90;;;;;;5021962;28;20041;-63
2022/05/21 05:59:51;;;;;;;1.45;0.95;;;26.50;49.90;;;;;;5016871;28;20025;-60
2022/05/21 06:05:07;;;;;;;;;;;26.50;49.80;;;;;;5029282;28;20060;-63
2022/05/21 06:07:32;;;;;;;1.20;1.00;;;26.50;49.70;;;;;;5024595;28;19924;-60
2022/05/21 06:10:03;;;;;;;1.10;0.90;;;26.50;49.70;;;;;;5028830;28;20029;-61
2022/05/21 06:12:29;;;;;;;0.98;0.80;;;26.40;49.20;;;;;;5025149;28;20033;-63
2022/05/21 06:14:55;;;;;;;2.03;0.90;;;26.40;47.60;;;;;;5028337;28;20460;-63
2022/05/21 06:17:21;;;;;;;1.20;0.82;;;26.30;45.40;;;;;;5026840;28;20040;-60
2022/05/21 06:19:46;;;;;;;1.00;0.75;;;26.20;44.90;;;;;;5023761;28;20086;-61
2022/05/21 06:22:12;;;;;;;1.02;0.80;;;26.20;44.30;;;;;;5026101;28;20036;-63
2022/05/21 06:24:38;;;;;;;1.52;0.80;;;26.10;44.00;;;;;;5028515;28;20078;-63
2022/05/21 06:27:07;;;;;;;1.20;1.00;;;26.10;43.30;;;;;;5024134;28;20034;-64
2022/05/21 06:29:32;;;;;;;;;;;25.90;43.30;;;;;;5029754;28;20051;-62
2022/05/21 06:31:58;;;;;;;3.08;1.33;;;25.80;42.60;;;;;;5025571;28;19916;-63
2022/05/21 06:34:24;;;;;;;1.52;1.10;;;25.70;42.30;;;;;;5024322;28;20037;-64
2022/05/21 06:36:50;;;;;;;1.05;0.90;;;25.40;42.40;;;;;;5022303;28;20033;-65
2022/05/21 06:39:16;;;;;;;1.42;0.98;;;25.20;43.00;;;;;;5025882;28;20075;-63
2022/05/21 06:41:42;;;;;;;2.13;1.40;;;25.00;42.60;;;;;;5024429;28;20029;-64
2022/05/21 06:44:09;;;;;;;1.88;1.10;;;24.80;43.30;;;;;;5005476;28;20056;-65
2022/05/21 06:46:36;;;;;;;2.05;1.00;;;24.70;43.30;;;;;;5026725;28;20315;-63
2022/05/21 06:49:02;;;;;;;1.60;1.00;;;24.70;43.20;;;;;;5023729;28;20036;-63
2022/05/21 06:51:27;;;;;;;1.65;1.10;;;24.60;43.70;;;;;;5028043;28;20030;-63
2022/05/21 06:53:53;;;;;;;1.48;1.00;;;24.50;43.20;;;;;;5026840;28;20044;-63
2022/05/21 06:56:19;;;;;;;1.80;1.00;;;24.50;43.30;;;;;;5027477;28;20547;-63
2022/05/21 06:58:46;;;;;;;2.08;1.17;;;24.40;43.60;;;;;;5022405;28;20100;-64
2022/05/21 07:01:12;;;;;;;1.83;1.10;;;24.30;43.40;;;;;;5025569;28;20434;-62
2022/05/21 07:03:37;;;;;;;1.45;1.00;;;24.20;43.40;;;;;;5026920;28;20125;-61
2022/05/21 07:08:48;;;;;;;1.52;1.00;;;24.00;43.00;;;;;;5025756;28;20121;-63
2022/05/21 07:11:14;;;;;;;2.17;1.05;;;23.90;43.20;;;;;;5024492;28;20760;-63
2022/05/21 07:13:39;;;;;;;1.55;1.13;;;23.80;42.80;;;;;;5023862;28;20032;-64
2022/05/21 07:16:05;;;;;;;1.38;1.00;;;23.70;43.30;;;;;;5020709;28;20029;-62
2022/05/21 07:18:31;;;;;;;2.67;0.93;;;23.70;43.20;;;;;;5024905;28;20037;-63
2022/05/21 07:20:57;;;;;;;1.48;0.95;;;23.70;43.40;;;;;;5028623;28;20099;-63
2022/05/21 07:23:24;;;;;;;1.23;0.90;;;23.80;43.40;;;;;;5022950;28;20151;-64
2022/05/21 07:25:50;;;;;;;1.52;0.90;;;23.70;43.00;;;;;;5027875;28;20032;-64
2022/05/21 07:28:16;;;;;;;1.27;0.90;;;23.70;43.10;;;;;;5024212;28;20029;-63
2022/05/21 07:30:44;;;;;;;1.27;1.00;;;23.70;43.10;;;;;;5026889;28;20164;-65
2022/05/21 07:33:12;;;;;;;1.30;1.00;;;23.60;43.20;;;;;;5026084;28;20017;-64
2022/05/21 07:35:38;;;;;;;2.35;1.27;;;23.50;43.90;;;;;;5027573;28;20037;-64
2022/05/21 07:38:05;;;;;;;3.85;1.17;;;23.50;42.90;;;;;;5029119;28;20044;-63
2022/05/21 07:40:31;;;;;;;1.08;0.80;;;23.40;42.20;;;;;;5029324;28;20060;-64
2022/05/21 07:42:56;;;;;;;1.35;0.80;;;23.30;42.80;;;;;;5025489;28;20151;-64
2022/05/21 07:45:22;;;;;;;1.73;0.90;;;23.30;42.40;;;;;;5028345;28;20155;-65
2022/05/21 07:47:51;;;;;;;2.17;1.30;;;23.30;43.00;;;;;;5029166;28;20036;-63
2022/05/21 07:50:18;;;;;;;1.77;1.00;;;23.30;43.00;;;;;;5030324;28;20513;-64
2022/05/21 07:52:44;;;;;;;1.30;0.80;;;23.30;42.90;;;;;;5028257;28;20458;-64
2022/05/21 07:55:11;;;;;;;1.58;0.80;;;23.30;42.70;;;;;;5025702;28;20109;-61
2022/05/21 07:57:37;;;;;;;1.00;0.70;;;23.20;41.90;;;;;;5025236;28;20503;-63
2022/05/21 08:00:07;;;;;;;1.02;0.70;;;23.30;42.30;;;;;;5027768;28;20029;-64
2022/05/21 08:02:33;;;;;;;1.10;0.70;;;23.30;42.50;;;;;;5029596;28;20057;-64
2022/05/21 08:04:59;;;;;;;3.03;0.80;;;23.30;42.80;;;;;;5028946;28;20060;-63
2022/05/21 08:07:25;;;;;;;1.10;0.80;;;23.30;42.70;;;;;;5025940;28;20033;-63
2022/05/21 08:09:50;;;;;;;2.92;1.20;;;23.30;43.00;;;;;;5025285;28;20488;-61
2022/05/21 08:12:17;;;;;;;1.95;0.90;;;23.30;42.20;;;;;;5026077;28;20823;-61
2022/05/21 08:14:43;;;;;;;2.35;0.90;;;23.20;42.70;;;;;;5027245;28;20058;-64
2022/05/21 08:17:09;;;;;;;1.70;1.10;;;23.20;42.80;;;;;;5021357;28;20037;-64
2022/05/21 08:19:35;;;;;;;2.20;1.00;;;23.10;43.00;;;;;;5022169;28;20609;-63
2022/05/21 08:26:56;;;;;;;1.60;0.80;;;23.10;43.60;;;;;;5024797;28;20033;-65
2022/05/21 08:27:30;;;;;;;0.88;0.70;;;23.30;44.10;;;;;;5020309;28;20047;-64
2022/05/21 08:29:56;;;;;;;1.23;0.65;;;23.30;43.80;;;;;;5022843;28;20037;-63
2022/05/21 08:32:22;;;;;;;0.63;0.60;;;23.40;43.80;;;;;;5019709;28;20098;-61
2022/05/21 08:34:48;;;;;;;0.90;0.63;;;23.50;43.90;;;;;;5024900;28;20033;-63
2022/05/21 08:37:13;;;;;;;1.02;0.65;;;23.60;44.00;;;;;;5023705;28;20112;-64
2022/05/21 08:39:39;;;;;;;1.60;0.70;;;23.60;43.90;;;;;;5025244;28;20093;-64
2022/05/21 08:42:17;;;;;;;0.95;0.60;;;23.70;44.00;;;;;;5022073;28;20040;-64
2022/05/21 08:44:49;;;;;;;0.80;0.55;;;23.70;44.10;;;;;;5024077;28;20497;-63
2022/05/21 08:47:21;;;;;;;0.88;0.60;;;23.80;44.20;;;;;;5017985;28;20108;-62
2022/05/21 08:49:54;;;;;;;1.20;0.60;;;23.80;44.10;;;;;;5021916;28;20059;-64
2022/05/21 08:52:42;;;;;;;0.95;0.60;;;23.80;44.20;;;;;;5023415;28;20105;-63
2022/05/21 08:55:11;;;;;;;0.50;0.50;;;23.80;44.40;;;;;;5030243;28;20029;-64
2022/05/21 08:57:55;;;;;;;1.15;0.70;;;23.90;44.80;;;;;;5022714;28;20033;-64
2022/05/21 09:00:33;;;;;;;1.15;0.55;;;23.90;44.90;;;;;;5025211;28;20041;-63
2022/05/21 09:02:59;;;;;;;1.08;0.50;;;23.90;45.10;;;;;;5026724;28;20633;-63
2022/05/21 09:05:25;;;;;;;0.60;0.50;;;24.00;45.40;;;;;;5024532;28;20120;-63
2022/05/21 09:08:14;;;;;;;0.50;0.50;;;24.00;45.40;;;;;;5022364;28;20026;-64
2022/05/21 09:11:03;;;;;;;1.10;0.50;;;24.00;45.50;;;;;;5010235;28;20172;-61
2022/05/21 09:13:41;;;;;;;0.95;0.52;;;24.00;45.60;;;;;;5023191;28;20640;-64
2022/05/21 09:18:55;;;;;;;1.15;0.70;;;24.00;45.80;;;;;;5019617;28;20044;-64
2022/05/21 09:21:23;;;;;;;1.85;0.50;;;24.10;46.10;;;;;;5024293;28;20021;-64
2022/05/21 09:23:57;;;;;;;1.45;0.50;;;24.10;46.10;;;;;;5026625;28;20029;-64
2022/05/21 09:26:51;;;;;;;1.02;0.60;;;24.10;46.30;;;;;;5015836;28;20611;-62
2022/05/21 09:29:28;;;;;;;1.45;0.60;;;24.10;46.40;;;;;;5025128;28;20048;-64
2022/05/21 09:31:55;;;;;;;0.77;0.60;;;24.10;46.50;;;;;;5022650;28;20243;-64
2022/05/21 09:34:26;;;;;;;2.38;0.68;;;24.20;46.60;;;;;;5028118;28;20425;-64
2022/05/21 09:36:52;;;;;;;0.57;0.50;;;24.20;46.60;;;;;;5024624;28;20362;-62
2022/05/21 09:39:31;;;;;;;0.75;0.50;;;24.20;47.20;;;;;;5024434;28;20037;-64
2022/05/21 09:42:08;;;;;;;1.25;0.60;;;24.20;46.80;;;;;;5018351;28;20081;-64
2022/05/21 09:47:24;;;;;;;1.45;0.50;;;24.20;46.80;;;;;;5022624;28;20049;-65
2022/05/21 09:50:03;;;;;;;0.85;0.57;;;24.30;46.90;;;;;;5027063;28;20024;-64
2022/05/21 09:52:31;;;;;;;0.57;0.50;;;24.30;46.90;;;;;;5024908;28;20021;-64
2022/05/21 09:54:56;;;;;;;0.68;0.52;;;24.30;46.90;;;;;;5022422;28;20049;-64
2022/05/21 09:57:28;;;;;;;0.82;0.50;;;24.30;46.90;;;;;;5018976;28;20114;-61
2022/05/21 10:00:11;;;;;;;1.15;0.50;;;24.30;46.90;;;;;;5025014;28;20025;-63
2022/05/21 10:02:49;;;;;;;0.65;0.50;;;24.30;47.00;;;;;;5025981;28;20767;-64
2022/05/21 10:05:30;;;;;;;1.15;0.50;;;24.30;47.00;;;;;;5025571;28;20104;-65
2022/05/21 10:10:59;;;;;;;0.82;0.50;;;24.40;47.10;;;;;;5025702;28;20094;-66
2022/05/21 10:13:46;;;;;;;;;;;24.40;47.10;;;;;;5025236;28;20033;-66
2022/05/21 10:16:32;;;;;;;1.40;0.70;;;24.40;47.20;;;;;;5023950;28;19912;-64
2022/05/21 10:19:17;;;;;;;0.68;0.55;;;24.40;47.10;;;;;;5024912;28;20440;-65
2022/05/21 10:22:10;;;;;;;0.60;0.50;;;24.40;47.10;;;;;;5027089;28;20455;-67
2022/05/21 10:24:40;;;;;;;0.73;0.40;;;24.50;47.20;;;;;;5024749;28;20028;-67
2022/05/21 10:27:42;;;;;;;0.75;0.52;;;24.50;47.20;;;;;;5013249;28;20078;-62
2022/05/21 10:30:25;;;;;;;2.72;0.50;;;24.50;47.90;;;;;;5019998;28;20115;-64
2022/05/21 10:33:09;;;;;;;0.70;0.55;;;24.50;48.20;;;;;;5021095;28;20029;-63
2022/05/21 10:36:01;;;;;;;0.50;0.50;;;24.50;48.00;;;;;;5019773;28;20114;-64
2022/05/21 10:38:42;;;;;;;0.40;0.40;;;24.60;48.00;;;;;;5019822;28;20029;-65
2022/05/21 10:41:35;;;;;;;0.75;0.50;;;24.60;47.90;;;;;;5022193;28;20059;-66
2022/05/21 10:44:25;;;;;;;0.30;0.30;;;24.70;47.90;;;;;;5013563;28;20082;-65
2022/05/21 10:47:13;;;;;;;1.63;0.40;;;24.80;47.80;;;;;;5020381;28;20059;-65
2022/05/21 10:49:57;;;;;;;0.45;0.45;;;24.80;47.70;;;;;;5021209;28;20082;-66
2022/05/21 10:52:28;;;;;;;0.50;0.40;;;24.80;47.60;;;;;;5021203;28;20033;-67
2022/05/21 10:55:01;;;;;;;0.40;0.40;;;24.90;47.60;;;;;;5017675;28;20052;-65
2022/05/21 10:57:52;;;;;;;1.40;0.50;;;24.90;47.50;;;;;;5015123;28;20120;-64
2022/05/21 11:00:42;;;;;;;0.40;0.40;;;25.00;47.50;;;;;;5015960;28;20120;-64
2022/05/21 11:03:08;;;;;;;1.05;0.40;;;25.00;47.40;;;;;;5018987;28;20106;-62
2022/05/21 11:05:58;;;;;;;0.73;0.40;;;25.10;47.90;;;;;;5023036;28;20025;-67
2022/05/21 11:08:47;;;;;;;0.68;0.43;;;25.10;47.30;;;;;;5023155;28;20068;-63
2022/05/21 11:11:27;;;;;;;0.82;0.50;;;25.10;47.30;;;;;;5011309;28;20080;-64
2022/05/21 11:14:23;;;;;;;0.40;0.40;;;25.20;47.30;;;;;;5019862;28;20028;-64
2022/05/21 11:16:53;;;;;;;0.63;0.40;;;25.20;47.30;;;;;;5022200;28;20857;-65
2022/05/21 11:19:53;;;;;;;0.43;0.32;;;25.30;47.30;;;;;;5025025;28;20033;-65
2022/05/21 11:22:25;;;;;;;0.30;0.30;;;25.30;47.30;;;;;;5023245;28;20047;-65
2022/05/21 11:25:23;;;;;;;1.85;0.40;;;25.40;47.30;;;;;;5028055;28;20021;-61
2022/05/21 11:28:21;;;;;;;0.60;0.50;;;25.40;47.20;;;;;;5022730;28;20606;-65
2022/05/21 11:30:47;;;;;;;0.50;0.50;;;25.40;47.10;;;;;;5024111;28;20052;-66
2022/05/21 11:38:52;;;;;;;0.50;0.40;;;25.40;47.00;;;;;;5027681;28;20074;-67
2022/05/21 11:41:29;;;;;;;0.63;0.50;;;25.40;47.00;;;;;;5026399;28;20033;-64
2022/05/21 11:47:08;;;;;;;0.57;0.55;;;25.40;47.00;;;;;;5023368;28;20080;-62
2022/05/21 11:49:55;;;;;;;1.02;0.50;;;25.40;47.00;;;;;;5028026;28;21036;-65
2022/05/21 11:52:27;;;;;;;0.77;0.50;;;25.50;47.10;;;;;;5027163;28;20041;-67
2022/05/21 11:55:01;;;;;;;0.30;0.30;;;25.50;47.10;;;;;;5026943;28;20779;-63
2022/05/21 11:57:42;;;;;;;0.93;0.40;;;25.50;47.10;;;;;;5022717;28;20620;-64
2022/05/21 12:00:17;;;;;;;0.40;0.40;;;25.50;47.10;;;;;;5024522;28;20026;-65
2022/05/21 12:03:06;;;;;;;0.40;0.30;;;25.50;47.10;;;;;;5026779;28;20029;-62
2022/05/21 12:05:32;;;;;;;;;;;25.50;47.10;;;;;;5015800;28;20037;-64
2022/05/21 12:08:30;;;;;;;1.13;0.50;;;25.50;47.10;;;;;;5028089;28;19917;-65
2022/05/21 12:11:10;;;;;;;0.50;0.50;;;25.50;47.10;;;;;;5030716;28;20031;-63
2022/05/21 12:13:35;;;;;;;0.40;0.40;;;25.50;47.10;;;;;;5026082;28;20501;-67
2022/05/21 12:16:20;;;;;;;1.45;0.40;;;25.50;47.10;;;;;;5027040;28;20120;-65
2022/05/21 12:18:54;;;;;;;0.40;0.40;;;25.50;47.10;;;;;;5028569;28;20032;-65
2022/05/21 12:21:40;;;;;;;0.85;0.43;;;25.50;47.60;;;;;;5023454;28;20040;-63
2022/05/21 12:24:33;;;;;;;0.60;0.40;;;25.50;47.00;;;;;;5029687;28;20037;-67
2022/05/21 12:27:24;;;;;;;0.55;0.50;;;25.50;47.00;;;;;;5021450;28;20041;-64
2022/05/21 12:29:58;;;;;;;0.68;0.45;;;25.50;47.00;;;;;;5019855;28;20811;-64
2022/05/21 12:32:24;;;;;;;1.63;0.45;;;25.50;47.00;;;;;;5027100;28;20042;-63
2022/05/21 12:35:10;;;;;;;0.32;0.32;;;25.60;47.10;;;;;;5026868;28;20045;-67
2022/05/21 12:37:41;;;;;;;0.43;0.40;;;25.50;47.00;;;;;;5023493;28;20548;-60
2022/05/21 12:40:38;;;;;;;0.52;0.47;;;25.50;47.00;;;;;;5026711;28;20052;-63
2022/05/21 12:43:12;;;;;;;0.28;0.28;;;25.50;47.00;;;;;;5024837;28;20044;-67
2022/05/21 12:45:58;;;;;;;0.55;0.40;;;25.50;47.00;;;;;;5002979;28;20400;-64
2022/05/21 12:48:33;;;;;;;0.70;0.50;;;25.50;46.90;;;;;;5025055;28;20041;-66
2022/05/21 12:51:04;;;;;;;0.40;0.40;;;25.60;47.00;;;;;;5026647;28;20029;-65
2022/05/21 12:53:44;;;;;;;0.77;0.50;;;25.50;46.90;;;;;;5027436;28;20123;-63
2022/05/21 12:56:12;;;;;;;0.40;0.40;;;25.50;46.90;;;;;;5027319;28;20063;-65
2022/05/21 12:58:39;;;;;;;0.50;0.40;;;25.60;47.00;;;;;;5025318;28;20040;-65
2022/05/21 13:01:05;;;;;;;0.93;0.40;;;25.50;46.90;;;;;;5028569;28;20037;-65
2022/05/21 13:03:33;;;;;;;1.20;0.50;;;25.60;46.90;;;;;;5022365;28;20079;-63
2022/05/21 13:06:06;;;;;;;1.15;0.50;;;25.60;46.90;;;;;;5009174;28;20040;-67
2022/05/21 13:08:34;;;;;;;0.47;0.47;;;25.60;47.00;;;;;;5009137;28;20127;-65
2022/05/21 13:11:12;;;;;;;0.40;0.40;;;25.50;46.80;;;;;;5028343;28;20043;-65
2022/05/21 13:13:40;;;;;;;0.60;0.40;;;25.60;46.90;;;;;;5022809;28;20743;-63
2022/05/21 13:16:15;;;;;;;0.45;0.40;;;25.50;46.90;;;;;;5025045;28;20032;-66
2022/05/21 13:18:56;;;;;;;1.15;0.30;;;25.60;46.90;;;;;;5028438;28;20025;-67
2022/05/21 13:21:41;;;;;;;0.30;0.30;;;25.60;46.90;;;;;;5024180;28;20033;-64
2022/05/21 13:24:36;;;;;;;0.40;0.30;;;25.50;46.80;;;;;;5024666;28;20025;-69
2022/05/21 13:27:01;;;;;;;0.88;0.40;;;25.50;46.90;;;;;;5022190;28;20031;-66
2022/05/21 13:29:29;;;;;;;0.57;0.43;;;25.50;46.90;;;;;;5026929;28;20032;-66
2022/05/21 13:31:56;;;;;;;0.30;0.30;;;25.60;46.90;;;;;;5022555;28;20053;-64
2022/05/21 13:34:25;;;;;;;0.40;0.40;;;25.60;46.90;;;;;;5026138;28;20029;-65
2022/05/21 13:36:58;;;;;;;0.80;0.57;;;25.50;46.90;;;;;;5025446;28;21097;-62
2022/05/21 13:39:32;;;;;;;1.02;0.43;;;25.60;47.00;;;;;;5026874;28;20063;-64
2022/05/21 13:42:10;;;;;;;1.13;0.57;;;25.60;47.00;;;;;;5021246;28;20520;-65
2022/05/21 13:44:37;;;;;;;1.08;0.70;;;25.60;47.00;;;;;;5008904;28;20028;-59